createdAt,value
2018-08-17T00:00:35.216Z,14.03
2018-08-17T00:03:39.555Z,12.57
2018-08-17T00:06:43.890Z,12.47
2018-08-17T00:09:48.432Z,15.30
2018-08-17T00:12:52.903Z,17.47
2018-08-17T00:15:57.338Z,15.47
2018-08-17T00:19:02.276Z,14.67
2018-08-17T00:22:06.719Z,13.80
2018-08-17T00:25:11.468Z,14.00
2018-08-17T00:28:15.922Z,14.80
2018-08-17T00:31:20.421Z,15.80
2018-08-17T00:34:25.048Z,16.20
2018-08-17T00:37:29.465Z,15.47
2018-08-17T00:40:33.859Z,15.90
2018-08-17T00:43:38.207Z,15.43
2018-08-17T00:46:42.673Z,14.93
2018-08-17T00:49:47.254Z,13.63
2018-08-17T00:52:51.643Z,17.47
2018-08-17T00:55:55.966Z,15.40
2018-08-17T00:59:00.321Z,15.93
2018-08-17T01:02:04.847Z,15.30
2018-08-17T01:05:09.389Z,12.93
2018-08-17T01:08:13.728Z,16.60
2018-08-17T01:11:18.128Z,18.00
2018-08-17T01:14:22.762Z,16.77
2018-08-17T01:17:27.220Z,13.83
2018-08-17T01:20:31.632Z,15.87
2018-08-17T01:23:36.195Z,14.63
2018-08-17T01:26:40.685Z,17.87
2018-08-17T01:29:45.007Z,15.80
2018-08-17T01:32:49.363Z,14.90
2018-08-17T01:35:53.909Z,15.13
2018-08-17T01:38:58.243Z,21.50
2018-08-17T01:42:02.556Z,17.43
2018-08-17T01:45:06.959Z,20.47
2018-08-17T01:48:11.376Z,17.30
2018-08-17T01:51:15.805Z,18.67
2018-08-17T01:54:20.267Z,18.90
2018-08-17T01:57:24.687Z,19.47
2018-08-17T02:00:29.016Z,18.83
2018-08-17T02:03:33.546Z,18.90
2018-08-17T02:06:37.992Z,18.30
2018-08-17T02:09:42.333Z,17.30
2018-08-17T02:12:46.726Z,17.90
2018-08-17T02:15:51.076Z,19.87
2018-08-17T02:18:55.484Z,16.63
2018-08-17T02:21:59.967Z,21.40
2018-08-17T02:25:04.641Z,21.57
2018-08-17T02:28:09.153Z,16.87
2018-08-17T02:31:13.503Z,19.97
2018-08-17T02:34:17.820Z,18.47
2018-08-17T02:37:22.321Z,19.50
2018-08-17T02:40:26.888Z,20.30
2018-08-17T02:43:31.334Z,18.90
2018-08-17T02:46:35.784Z,21.83
2018-08-17T02:49:40.322Z,21.33
2018-08-17T02:52:44.709Z,21.33
2018-08-17T02:55:49.160Z,21.63
2018-08-17T02:58:53.527Z,23.40
2018-08-17T03:01:57.871Z,20.27
2018-08-17T03:05:02.331Z,20.27
2018-08-17T03:08:07.157Z,21.33
2018-08-17T03:11:11.543Z,21.50
2018-08-17T03:14:15.897Z,22.03
2018-08-17T03:17:20.281Z,24.10
2018-08-17T03:20:24.690Z,21.47
2018-08-17T03:23:29.209Z,22.83
2018-08-17T03:26:33.544Z,21.83
2018-08-17T03:29:38.079Z,22.67
2018-08-17T03:32:42.474Z,18.90
2018-08-17T03:35:46.902Z,19.73
2018-08-17T03:38:51.337Z,24.13
2018-08-17T03:41:55.696Z,20.73
2018-08-17T03:45:00.207Z,25.27
2018-08-17T03:48:04.550Z,21.50
2018-08-17T03:51:08.931Z,27.57
2018-08-17T03:54:13.323Z,21.43
2018-08-17T03:57:17.853Z,23.07
2018-08-17T04:00:22.377Z,19.13
2018-08-17T04:03:26.681Z,18.80
2018-08-17T04:06:31.123Z,21.70
2018-08-17T04:09:35.533Z,18.10
2018-08-17T04:12:39.947Z,18.60
2018-08-17T04:15:44.246Z,19.10
2018-08-17T04:18:58.912Z,18.70
2018-08-17T04:22:03.659Z,18.77
2018-08-17T04:25:08.087Z,17.43
2018-08-17T04:28:12.522Z,19.93
2018-08-17T04:31:17.111Z,18.40
2018-08-17T04:34:21.460Z,16.17
2018-08-17T04:37:25.905Z,20.47
2018-08-17T04:40:30.525Z,16.23
2018-08-17T04:43:34.940Z,19.17
2018-08-17T04:46:39.372Z,14.77
2018-08-17T04:49:43.785Z,13.23
2018-08-17T04:52:48.196Z,17.63
2018-08-17T04:55:52.623Z,14.57
2018-08-17T04:58:56.939Z,13.40
2018-08-17T05:02:01.369Z,14.23
2018-08-17T05:05:06.611Z,14.93
2018-08-17T05:08:10.928Z,19.20
2018-08-17T05:11:16.253Z,17.30
2018-08-17T05:14:20.621Z,13.07
2018-08-17T05:17:24.941Z,16.57
2018-08-17T05:20:29.518Z,16.10
2018-08-17T05:23:34.291Z,15.97
2018-08-17T05:26:39.034Z,17.90
2018-08-17T05:29:43.696Z,15.43
2018-08-17T05:32:48.109Z,13.93
2018-08-17T05:35:52.735Z,15.33
2018-08-17T05:38:57.229Z,17.70
2018-08-17T05:42:01.603Z,16.53
2018-08-17T05:45:07.685Z,14.80
2018-08-17T05:48:12.517Z,20.63
2018-08-17T05:51:17.392Z,16.73
2018-08-17T05:54:22.195Z,13.70
2018-08-17T05:57:26.958Z,13.27
2018-08-17T06:00:31.586Z,15.60
2018-08-17T06:03:36.068Z,12.00
2018-08-17T06:06:40.811Z,9.83
2018-08-17T06:09:45.439Z,14.03
2018-08-17T06:12:49.981Z,10.63
2018-08-17T06:15:54.605Z,13.33
2018-08-17T06:18:59.361Z,13.17
2018-08-17T06:22:04.064Z,12.83
2018-08-17T06:25:11.915Z,22.70
2018-08-17T06:28:16.426Z,12.43
2018-08-17T06:31:21.112Z,13.57
2018-08-17T06:34:25.672Z,13.70
2018-08-17T06:37:30.250Z,11.60
2018-08-17T06:40:34.979Z,11.30
2018-08-17T06:43:39.454Z,11.90
2018-08-17T06:46:44.094Z,10.67
2018-08-17T06:49:48.410Z,10.40
2018-08-17T06:52:52.781Z,10.10
2018-08-17T06:55:57.093Z,8.47
2018-08-17T06:59:01.452Z,12.67
2018-08-17T07:02:05.896Z,12.90
2018-08-17T07:05:10.227Z,11.80
2018-08-17T07:08:14.926Z,7.87
2018-08-17T07:11:19.469Z,7.30
2018-08-17T07:14:24.094Z,7.57
2018-08-17T07:17:28.426Z,5.87
2018-08-17T07:20:32.861Z,7.47
2018-08-17T07:23:37.269Z,7.97
2018-08-17T07:26:41.560Z,10.67
2018-08-17T07:29:45.972Z,9.67
2018-08-17T07:32:50.308Z,11.27
2018-08-17T07:35:54.821Z,9.97
2018-08-17T07:38:59.214Z,6.77
2018-08-17T07:42:03.605Z,8.67
2018-08-17T07:45:08.198Z,9.73
2018-08-17T07:48:12.667Z,9.37
2018-08-17T07:51:17.027Z,8.60
2018-08-17T07:54:21.496Z,7.93
2018-08-17T07:57:25.842Z,11.33
2018-08-17T08:00:30.187Z,7.27
2018-08-17T08:03:34.564Z,8.63
2018-08-17T08:06:38.874Z,7.37
2018-08-17T08:09:43.424Z,9.07
2018-08-17T08:12:47.870Z,6.23
2018-08-17T08:15:52.318Z,6.97
2018-08-17T08:18:56.671Z,4.90
2018-08-17T08:22:01.012Z,5.17
2018-08-17T08:25:05.572Z,5.37
2018-08-17T08:28:10.113Z,5.63
2018-08-17T08:31:14.565Z,8.37
2018-08-17T08:34:18.937Z,4.73
2018-08-17T08:37:23.370Z,6.17
2018-08-17T08:40:27.910Z,7.37
2018-08-17T08:43:32.201Z,8.10
2018-08-17T08:46:37.300Z,8.30
2018-08-17T08:49:41.636Z,7.80
2018-08-17T08:52:46.106Z,7.30
2018-08-17T08:55:50.696Z,8.20
2018-08-17T08:58:55.236Z,5.50
2018-08-17T09:01:59.538Z,9.47
2018-08-17T09:05:03.986Z,7.83
2018-08-17T09:08:08.503Z,10.90
2018-08-17T09:11:12.820Z,5.93
2018-08-17T09:14:17.243Z,8.53
2018-08-17T09:17:21.633Z,7.47
2018-08-17T09:20:26.066Z,8.73
2018-08-17T09:23:30.653Z,6.47
2018-08-17T09:26:35.091Z,9.27
2018-08-17T09:29:39.511Z,8.13
2018-08-17T09:32:44.037Z,7.00
2018-08-17T09:35:48.509Z,7.27
2018-08-17T09:38:53.023Z,9.03
2018-08-17T09:41:57.583Z,7.73
2018-08-17T09:45:01.885Z,8.77
2018-08-17T09:48:06.927Z,9.30
2018-08-17T09:51:11.339Z,7.20
2018-08-17T09:54:16.107Z,7.07
2018-08-17T09:57:20.663Z,6.93
2018-08-17T10:00:30.361Z,4.80
2018-08-17T10:03:40.008Z,10.30
2018-08-17T10:06:50.216Z,8.87
2018-08-17T10:09:55.607Z,10.77
2018-08-17T10:13:00.136Z,6.30
2018-08-17T10:16:04.569Z,6.33
2018-08-17T10:19:09.261Z,8.53
2018-08-17T10:22:13.695Z,5.47
2018-08-17T10:25:22.529Z,6.87
2018-08-17T10:28:27.246Z,5.57
2018-08-17T10:31:31.726Z,3.87
2018-08-17T10:34:36.121Z,7.20
2018-08-17T10:37:40.616Z,7.87
2018-08-17T10:40:45.142Z,4.80
2018-08-17T10:43:49.491Z,8.50
2018-08-17T10:46:53.967Z,8.30
2018-08-17T10:50:01.311Z,7.03
2018-08-17T10:53:06.012Z,6.20
2018-08-17T10:56:10.276Z,7.03
2018-08-17T10:59:14.579Z,7.57
2018-08-17T11:02:18.900Z,8.43
2018-08-17T11:05:23.313Z,6.80
2018-08-17T11:08:27.778Z,6.20
2018-08-17T11:11:32.169Z,7.53
2018-08-17T11:14:36.578Z,6.87
2018-08-17T11:17:41.984Z,5.20
2018-08-17T11:20:46.349Z,4.40
2018-08-17T11:23:50.681Z,5.90
2018-08-17T11:26:55.056Z,4.70
2018-08-17T11:29:59.375Z,3.73
2018-08-17T11:33:03.774Z,7.73
2018-08-17T11:36:08.144Z,4.23
2018-08-17T11:39:12.484Z,6.53
2018-08-17T11:42:16.818Z,4.67
2018-08-17T11:45:23.306Z,5.27
2018-08-17T11:48:32.830Z,6.70
2018-08-17T11:51:40.969Z,5.67
2018-08-17T11:54:45.637Z,7.93
2018-08-17T11:57:50.018Z,6.30
2018-08-17T12:00:54.291Z,4.03
2018-08-17T12:03:58.600Z,6.27
2018-08-17T12:07:02.930Z,5.80
2018-08-17T12:10:07.672Z,4.50
2018-08-17T12:13:18.065Z,5.43
2018-08-17T12:16:22.554Z,7.00
2018-08-17T12:19:27.026Z,4.50
2018-08-17T12:22:31.878Z,4.07
2018-08-17T12:25:44.020Z,4.80
2018-08-17T12:28:48.412Z,4.57
2018-08-17T12:31:52.777Z,5.30
2018-08-17T12:34:57.200Z,6.23
2018-08-17T12:38:06.755Z,5.50
2018-08-17T12:41:11.410Z,2.60
2018-08-17T12:44:18.489Z,8.50
2018-08-17T12:47:22.948Z,6.20
2018-08-17T12:50:27.370Z,5.20
2018-08-17T12:53:31.759Z,6.67
2018-08-17T12:56:36.207Z,6.13
2018-08-17T12:59:40.591Z,6.63
2018-08-17T13:02:45.031Z,8.77
2018-08-17T13:05:49.362Z,4.70
2018-08-17T13:08:53.808Z,6.60
2018-08-17T13:12:00.467Z,5.47
2018-08-17T13:15:04.749Z,5.80
2018-08-17T13:18:16.296Z,6.23
2018-08-17T13:21:20.577Z,7.37
2018-08-17T13:24:24.859Z,5.67
2018-08-17T13:27:29.210Z,6.13
2018-08-17T13:30:33.505Z,3.03
2018-08-17T13:33:37.841Z,4.10
2018-08-17T13:36:42.170Z,6.23
2018-08-17T13:39:46.537Z,7.20
2018-08-17T13:42:50.816Z,6.40
2018-08-17T13:45:55.121Z,3.83
2018-08-17T13:48:59.458Z,5.27
2018-08-17T13:52:03.741Z,4.40
2018-08-17T13:55:08.332Z,4.53
2018-08-17T13:58:12.713Z,3.30
2018-08-17T14:01:17.056Z,4.13
2018-08-17T14:04:21.359Z,5.67
2018-08-17T14:07:25.674Z,4.97
2018-08-17T14:10:30.013Z,4.70
2018-08-17T14:13:34.308Z,4.80
2018-08-17T14:16:38.618Z,4.17
2018-08-17T14:19:42.878Z,5.60
2018-08-17T14:22:47.186Z,4.63
2018-08-17T14:25:51.493Z,4.50
2018-08-17T14:28:55.858Z,3.77
2018-08-17T14:32:00.114Z,5.53
2018-08-17T14:35:04.419Z,4.77
2018-08-17T14:38:08.920Z,3.67
2018-08-17T14:41:13.327Z,8.13
2018-08-17T14:44:17.713Z,4.40
2018-08-17T14:47:22.070Z,4.40
2018-08-17T14:50:26.357Z,4.53
2018-08-17T14:53:30.782Z,6.40
2018-08-17T14:56:35.208Z,4.93
2018-08-17T14:59:39.593Z,3.83
2018-08-17T15:02:43.945Z,5.43
2018-08-17T15:05:48.593Z,8.37
2018-08-17T15:08:53.357Z,5.73
2018-08-17T15:11:57.655Z,6.03
2018-08-17T15:15:02.521Z,2.77
2018-08-17T15:18:07.071Z,7.73
2018-08-17T15:21:11.476Z,5.27
2018-08-17T15:24:15.803Z,3.97
2018-08-17T15:27:20.150Z,5.83
2018-08-17T15:30:25.302Z,3.13
2018-08-17T15:33:30.628Z,4.63
2018-08-17T15:36:35.709Z,4.83
2018-08-17T15:39:41.058Z,4.23
2018-08-17T15:42:46.350Z,5.60
2018-08-17T15:45:52.265Z,3.30
2018-08-17T15:48:57.289Z,5.37
2018-08-17T15:52:02.560Z,5.63
2018-08-17T15:55:06.918Z,3.87
2018-08-17T15:58:11.280Z,5.90
2018-08-17T16:01:15.676Z,2.17
2018-08-17T16:04:20.040Z,5.40
2018-08-17T16:07:24.371Z,2.97
2018-08-17T16:10:28.840Z,4.53
2018-08-17T16:13:33.007Z,2.10
2018-08-17T16:16:37.698Z,3.60
2018-08-17T16:19:42.083Z,2.00
2018-08-17T16:22:46.549Z,2.20
2018-08-17T16:25:50.914Z,2.20
2018-08-17T16:28:55.187Z,2.53
2018-08-17T16:31:59.626Z,3.30
2018-08-17T16:35:05.253Z,3.20
2018-08-17T16:38:09.742Z,3.70
2018-08-17T16:41:14.043Z,3.50
2018-08-17T16:44:18.453Z,2.10
2018-08-17T16:47:22.778Z,2.00
2018-08-17T16:50:27.070Z,3.47
2018-08-17T16:53:31.661Z,2.07
2018-08-17T16:56:36.285Z,2.00
2018-08-17T16:59:40.640Z,2.67
2018-08-17T17:02:44.980Z,3.27
2018-08-17T17:05:54.857Z,2.43
2018-08-17T17:09:02.406Z,2.47
2018-08-17T17:12:12.494Z,2.20
2018-08-17T17:15:21.072Z,4.40
2018-08-17T17:18:25.551Z,2.60
2018-08-17T17:21:29.928Z,1.60
2018-08-17T17:24:34.450Z,5.07
2018-08-17T17:27:39.063Z,1.73
2018-08-17T17:30:49.473Z,4.43
2018-08-17T17:33:54.604Z,1.30
2018-08-17T17:36:59.720Z,2.10
2018-08-17T17:40:04.528Z,3.80
2018-08-17T17:43:09.005Z,4.27
2018-08-17T17:46:13.395Z,2.67
2018-08-17T17:49:17.765Z,2.37
2018-08-17T17:52:22.435Z,1.63
2018-08-17T17:55:35.927Z,2.47
2018-08-17T17:58:40.332Z,2.07
2018-08-17T18:01:44.772Z,3.17
2018-08-17T18:04:49.171Z,5.10
2018-08-17T18:07:53.493Z,3.60
2018-08-17T18:10:57.842Z,4.73
2018-08-17T18:14:02.127Z,5.27
2018-08-17T18:17:06.545Z,2.73
2018-08-17T18:20:12.278Z,4.17
2018-08-17T18:23:16.640Z,4.43
2018-08-17T18:26:24.050Z,3.50
2018-08-17T18:29:28.333Z,5.20
2018-08-17T18:32:33.004Z,3.73
2018-08-17T18:35:37.399Z,3.47
2018-08-17T18:38:41.839Z,3.73
2018-08-17T18:41:46.222Z,5.53
2018-08-17T18:44:50.625Z,5.00
2018-08-17T18:47:55.085Z,8.27
2018-08-17T18:50:59.527Z,3.13
2018-08-17T18:54:03.927Z,5.97
2018-08-17T18:57:08.453Z,3.27
2018-08-17T19:00:14.350Z,4.27
2018-08-17T19:03:18.739Z,5.33
2018-08-17T19:06:23.147Z,4.00
2018-08-17T19:09:27.680Z,3.67
2018-08-17T19:12:32.090Z,3.63
2018-08-17T19:15:40.633Z,3.03
2018-08-17T19:18:45.768Z,5.47
2018-08-17T19:21:50.122Z,4.33
2018-08-17T19:24:54.585Z,6.07
2018-08-17T19:27:59.078Z,5.07
2018-08-17T19:31:03.557Z,5.63
2018-08-17T19:34:07.945Z,4.57
2018-08-17T19:37:12.352Z,4.10
2018-08-17T19:40:17.724Z,4.47
2018-08-17T19:43:22.115Z,5.93
2018-08-17T19:46:26.621Z,6.17
2018-08-17T19:49:31.152Z,3.60
2018-08-17T19:52:35.619Z,6.50
2018-08-17T19:55:40.084Z,4.43
2018-08-17T19:58:44.592Z,6.90
2018-08-17T20:01:48.960Z,5.47
2018-08-17T20:04:53.473Z,4.83
2018-08-17T20:07:58.021Z,5.30
2018-08-17T20:11:02.520Z,6.20
2018-08-17T20:14:06.914Z,3.40
2018-08-17T20:17:11.388Z,4.93
2018-08-17T20:20:15.809Z,6.43
2018-08-17T20:23:20.367Z,5.43
2018-08-17T20:26:25.915Z,8.07
2018-08-17T20:29:29.983Z,3.77
2018-08-17T20:32:34.398Z,8.03
2018-08-17T20:35:38.796Z,8.23
2018-08-17T20:38:43.136Z,4.27
2018-08-17T20:41:47.431Z,7.10
2018-08-17T20:44:51.790Z,5.70
2018-08-17T20:47:56.106Z,5.77
2018-08-17T20:51:05.445Z,5.93
2018-08-17T20:54:09.870Z,6.93
2018-08-17T20:57:14.375Z,3.07
2018-08-17T21:00:19.098Z,4.07
2018-08-17T21:03:23.528Z,9.20
2018-08-17T21:06:28.100Z,8.97
2018-08-17T21:09:32.565Z,9.10
2018-08-17T21:12:37.068Z,4.33
2018-08-17T21:15:41.704Z,3.70
2018-08-17T21:18:46.210Z,7.23
2018-08-17T21:21:50.510Z,4.70
2018-08-17T21:24:54.870Z,5.70
2018-08-17T21:27:59.193Z,6.57
2018-08-17T21:31:03.653Z,5.47
2018-08-17T21:34:07.958Z,4.40
2018-08-17T21:37:12.350Z,5.93
2018-08-17T21:40:21.149Z,7.30
2018-08-17T21:43:25.508Z,8.50
2018-08-17T21:46:29.829Z,4.97
2018-08-17T21:49:35.327Z,4.17
2018-08-17T21:52:39.701Z,7.83
2018-08-17T21:55:44.030Z,5.73
2018-08-17T21:58:48.361Z,9.10
2018-08-17T22:01:52.686Z,5.90
2018-08-17T22:04:57.107Z,5.53
2018-08-17T22:08:01.722Z,6.63
2018-08-17T22:11:06.190Z,7.83
2018-08-17T22:14:10.554Z,7.30
2018-08-17T22:17:36.315Z,7.03
2018-08-17T22:20:40.610Z,3.60
2018-08-17T22:23:44.932Z,7.30
2018-08-17T22:26:49.262Z,5.03
2018-08-17T22:29:54.865Z,5.67
2018-08-17T22:32:59.105Z,5.80
2018-08-17T22:36:03.914Z,9.47
2018-08-17T22:39:08.392Z,6.30
2018-08-17T22:42:13.053Z,7.00
2018-08-17T22:45:17.654Z,8.17
2018-08-17T22:48:22.282Z,6.93
2018-08-17T22:51:26.548Z,11.63
2018-08-17T22:54:30.884Z,6.23
2018-08-17T22:57:35.144Z,10.07
2018-08-17T23:00:39.536Z,6.23
2018-08-17T23:03:48.910Z,8.30
2018-08-17T23:06:53.262Z,6.97
2018-08-17T23:09:57.618Z,7.40
2018-08-17T23:13:01.937Z,6.53
2018-08-17T23:16:06.258Z,9.20
2018-08-17T23:19:10.564Z,8.17
2018-08-17T23:22:14.969Z,7.83
2018-08-17T23:25:19.364Z,8.50
2018-08-17T23:28:23.613Z,6.13
2018-08-17T23:31:28.206Z,8.17
2018-08-17T23:34:32.554Z,10.43
2018-08-17T23:37:37.031Z,8.00
2018-08-17T23:40:41.347Z,8.57
2018-08-17T23:43:45.774Z,4.97
2018-08-17T23:46:50.181Z,7.37
2018-08-17T23:49:54.481Z,6.07
2018-08-17T23:52:58.770Z,5.87
2018-08-17T23:56:03.128Z,6.53
2018-08-17T23:59:07.453Z,7.07
